CA-0417 weather

CLOSED Yarbo Airport
Saskatchewan, Canada

Public forecast

Using degrees Celsius for public forecast. Weather courtesy of forecast.io.

METAR (pilot weather report)

Closest report is Yorkton Municipal Airport, 38.5 nm (71.3 km) NNW. Retrieved 2019/07/19 15:19 UTC (12 minutes ago):

CYQV 191519Z AUTO 25015G22KT 9SM BKN022 OVC028 14/10 A2959 RMK SLP029 DENSITY ALT 2200FT

TAF (pilot weather forecast)

Closest forecast is Yorkton Municipal Airport, 38.5 nm (71.3 km) NNW. Retrieved 2019/07/19 12:42 UTC (3 hours ago):

TAF CYQV 191138Z 1912/1924 24012KT P6SM FEW150 BECMG 1914/1916 27015G25KT FM191600 27015G25KT P6SM BKN030 TEMPO 1916/1921 BKN020 FM192100 27015G25KT P6SM BKN030 TEMPO 1921/1924 P6SM -SHRA RMK FCST BASED ON AUTO OBS. NXT FCST BY 191800Z